createdAt,value
2022-12-08T00:00:09.576Z,100728.88
2022-12-08T00:03:15.518Z,100734.59
2022-12-08T00:06:42.927Z,100736.72
2022-12-08T00:09:45.675Z,100740.09
2022-12-08T00:12:48.441Z,100737.28
2022-12-08T00:15:51.139Z,100738.59
2022-12-08T00:18:53.915Z,100741.22
2022-12-08T00:21:57.338Z,100750.75
2022-12-08T00:25:00.295Z,100737.69
2022-12-08T00:28:03.402Z,100742.44
2022-12-08T00:31:10.978Z,100740.09
2022-12-08T00:34:15.046Z,100748.63
2022-12-08T00:37:17.769Z,100742.75
2022-12-08T00:40:20.486Z,100742.56
2022-12-08T00:43:23.228Z,100747.34
2022-12-08T00:46:26.109Z,100757.22
2022-12-08T00:49:29.062Z,100760.34
2022-12-08T00:52:31.974Z,100774.00
2022-12-08T00:55:34.697Z,100763.03
2022-12-08T00:58:37.588Z,100755.28
2022-12-08T01:01:40.395Z,100756.44
2022-12-08T01:04:43.411Z,100755.97
2022-12-08T01:07:46.308Z,100746.63
2022-12-08T01:10:49.130Z,100740.00
2022-12-08T01:13:51.987Z,100743.44
2022-12-08T01:16:54.981Z,100738.50
2022-12-08T01:19:57.741Z,100738.53
2022-12-08T01:23:00.605Z,100744.28
2022-12-08T01:26:05.188Z,100736.75
2022-12-08T01:29:08.382Z,100736.09
2022-12-08T01:32:11.274Z,100733.09
2022-12-08T01:35:14.359Z,100724.88
2022-12-08T01:38:17.449Z,100731.66
2022-12-08T01:41:22.830Z,100721.97
2022-12-08T01:44:25.583Z,100724.13
2022-12-08T01:47:34.993Z,100722.50
2022-12-08T01:50:40.066Z,100727.88
2022-12-08T01:53:43.543Z,100718.66
2022-12-08T01:57:11.990Z,100721.47
2022-12-08T02:00:17.652Z,100715.59
2022-12-08T02:03:59.138Z,100705.91
2022-12-08T02:07:07.821Z,100705.91
2022-12-08T02:10:14.534Z,100702.97
2022-12-08T02:13:19.318Z,100707.31
2022-12-08T02:16:22.188Z,100704.69
2022-12-08T02:20:03.814Z,100707.47
2022-12-08T02:23:11.277Z,100697.16
2022-12-08T02:26:35.427Z,100685.69
2022-12-08T02:30:07.803Z,100683.69
2022-12-08T02:33:31.398Z,100686.63
2022-12-08T02:36:47.423Z,100690.25
2022-12-08T02:40:22.996Z,100687.50
2022-12-08T02:43:47.775Z,100676.34
2022-12-08T02:47:06.149Z,100668.47
2022-12-08T02:50:09.993Z,100671.75
2022-12-08T02:56:17.361Z,100671.56
2022-12-08T02:59:33.895Z,100664.47
2022-12-08T03:03:02.564Z,100662.31
2022-12-08T03:06:24.097Z,100662.34
2022-12-08T03:09:46.996Z,100659.34
2022-12-08T03:12:57.748Z,100652.28
2022-12-08T03:16:04.826Z,100651.78
2022-12-08T03:19:21.332Z,100648.66
2022-12-08T03:22:27.790Z,100644.56
2022-12-08T03:25:33.764Z,100635.19
2022-12-08T03:28:36.642Z,100631.47
2022-12-08T03:31:44.618Z,100628.03
2022-12-08T03:34:51.029Z,100635.19
2022-12-08T03:38:09.115Z,100633.41
2022-12-08T03:41:21.322Z,100631.78
2022-12-08T03:44:24.190Z,100629.81
2022-12-08T03:47:26.996Z,100632.75
2022-12-08T03:50:29.849Z,100634.03
2022-12-08T03:53:32.578Z,100632.53
2022-12-08T03:56:38.281Z,100624.34
2022-12-08T03:59:41.366Z,100616.97
2022-12-08T04:02:44.252Z,100616.47
2022-12-08T04:05:47.018Z,100611.38
2022-12-08T04:08:51.122Z,100600.75
2022-12-08T04:11:53.874Z,100609.75
2022-12-08T04:14:56.558Z,100604.63
2022-12-08T04:17:59.377Z,100602.16
2022-12-08T04:21:02.843Z,100615.41
2022-12-08T04:24:05.841Z,100613.91
2022-12-08T04:27:08.682Z,100624.38
2022-12-08T04:30:12.116Z,100619.13
2022-12-08T04:33:14.865Z,100622.94
2022-12-08T04:36:17.660Z,100616.41
2022-12-08T04:39:21.386Z,100619.69
2022-12-08T04:42:24.121Z,100619.03
2022-12-08T04:45:26.961Z,100629.75
2022-12-08T04:48:29.959Z,100632.88
2022-12-08T04:51:32.745Z,100637.31
2022-12-08T04:54:35.571Z,100635.72
2022-12-08T04:57:38.392Z,100634.41
2022-12-08T05:00:41.609Z,100632.03
2022-12-08T05:03:44.401Z,100631.53
2022-12-08T05:06:47.185Z,100622.72
2022-12-08T05:09:49.969Z,100616.00
2022-12-08T05:12:52.883Z,100611.56
2022-12-08T05:16:06.159Z,100616.31
2022-12-08T05:19:09.539Z,100624.19
2022-12-08T05:22:12.498Z,100623.91
2022-12-08T05:25:15.544Z,100622.28
2022-12-08T05:28:40.735Z,100617.69
2022-12-08T05:31:41.242Z,100624.41
2022-12-08T05:34:44.156Z,100622.13
2022-12-08T05:37:47.010Z,100622.28
2022-12-08T05:40:49.839Z,100623.28
2022-12-08T05:43:52.650Z,100628.97
2022-12-08T05:46:55.504Z,100628.97
2022-12-08T05:49:58.303Z,100621.28
2022-12-08T05:53:01.076Z,100627.09
2022-12-08T05:56:04.040Z,100633.13
2022-12-08T05:59:07.589Z,100628.53
2022-12-08T06:02:10.397Z,100629.34
2022-12-08T06:05:13.438Z,100617.22
2022-12-08T06:08:16.452Z,100627.84
2022-12-08T06:11:21.566Z,100617.88
2022-12-08T06:14:24.435Z,100609.19
2022-12-08T06:17:27.274Z,100600.50
2022-12-08T06:20:30.085Z,100596.91
2022-12-08T06:23:32.863Z,100589.69
2022-12-08T06:26:36.253Z,100581.19
2022-12-08T06:29:39.373Z,100586.47
2022-12-08T06:32:42.441Z,100597.91
2022-12-08T06:35:45.291Z,100602.97
2022-12-08T06:38:48.627Z,100609.03
2022-12-08T06:42:09.810Z,100604.47
2022-12-08T06:45:17.112Z,100599.38
2022-12-08T06:48:20.032Z,100602.00
2022-12-08T06:51:25.716Z,100595.47
2022-12-08T06:54:28.771Z,100595.63
2022-12-08T06:57:31.820Z,100601.41
2022-12-08T07:00:34.658Z,100583.84
2022-12-08T07:03:38.702Z,100587.16
2022-12-08T07:06:41.802Z,100584.19
2022-12-08T07:09:44.963Z,100587.47
2022-12-08T07:12:48.081Z,100583.69
2022-12-08T07:15:52.607Z,100584.06
2022-12-08T07:18:57.061Z,100587.00
2022-12-08T07:22:00.743Z,100584.41
2022-12-08T07:25:03.776Z,100584.56
2022-12-08T07:28:13.090Z,100583.28
2022-12-08T07:31:26.973Z,100595.25
2022-12-08T07:34:33.751Z,100589.00
2022-12-08T07:37:38.264Z,100587.69
2022-12-08T07:40:41.288Z,100593.59
2022-12-08T07:43:48.207Z,100600.31
2022-12-08T07:46:51.372Z,100608.19
2022-12-08T07:49:54.474Z,100607.69
2022-12-08T07:52:58.533Z,100603.88
2022-12-08T07:56:01.355Z,100609.97
2022-12-08T07:59:04.563Z,100605.66
2022-12-08T08:02:24.290Z,100609.59
2022-12-08T08:05:28.537Z,100609.59
2022-12-08T08:08:34.780Z,100609.44
2022-12-08T08:11:37.995Z,100607.50
2022-12-08T08:14:40.879Z,100600.09
2022-12-08T08:17:43.644Z,100597.66
2022-12-08T08:20:46.514Z,100592.06
2022-12-08T08:23:49.570Z,100590.09
2022-12-08T08:26:53.726Z,100599.13
2022-12-08T08:29:56.684Z,100589.78
2022-12-08T08:33:01.225Z,100595.19
2022-12-08T08:36:08.412Z,100575.03
2022-12-08T08:39:11.269Z,100576.31
2022-12-08T08:42:15.671Z,100569.88
2022-12-08T08:45:18.547Z,100561.38
2022-12-08T08:48:21.603Z,100554.78
2022-12-08T08:51:24.596Z,100542.91
2022-12-08T08:54:29.629Z,100542.44
2022-12-08T08:57:32.609Z,100552.75
2022-12-08T09:00:35.404Z,100527.56
2022-12-08T09:03:38.808Z,100524.03
2022-12-08T09:06:45.586Z,100517.22
2022-12-08T09:09:50.398Z,100514.97
2022-12-08T09:12:53.415Z,100502.03
2022-12-08T09:15:56.594Z,100513.38
2022-12-08T09:19:00.649Z,100506.53
2022-12-08T09:23:04.760Z,100516.19
2022-12-08T09:26:09.350Z,100513.78
2022-12-08T09:29:13.971Z,100502.66
2022-12-08T09:32:17.065Z,100504.06
2022-12-08T09:35:20.135Z,100499.56
2022-12-08T09:38:23.219Z,100493.06
2022-12-08T09:41:38.779Z,100487.94
2022-12-08T09:45:10.015Z,100476.13
2022-12-08T09:48:15.518Z,100471.47
2022-12-08T09:51:18.891Z,100475.75
2022-12-08T09:54:35.208Z,100475.38
2022-12-08T09:57:38.388Z,100475.91
2022-12-08T10:00:41.173Z,100470.94
2022-12-08T10:03:44.085Z,100457.44
2022-12-08T10:06:53.228Z,100450.91
2022-12-08T10:10:04.749Z,100439.91
2022-12-08T10:13:22.115Z,100421.31
2022-12-08T10:16:35.099Z,100416.81
2022-12-08T10:19:40.869Z,100424.78
2022-12-08T10:22:49.965Z,100414.38
2022-12-08T10:26:01.087Z,100428.19
2022-12-08T10:29:04.083Z,100428.88
2022-12-08T10:32:17.235Z,100417.84
2022-12-08T10:35:23.043Z,100419.22
2022-12-08T10:38:36.373Z,100419.03
2022-12-08T10:41:40.438Z,100414.13
2022-12-08T10:45:24.909Z,100403.50
2022-12-08T10:48:33.383Z,100393.63
2022-12-08T10:51:42.097Z,100389.59
2022-12-08T10:54:46.835Z,100399.91
2022-12-08T10:57:50.780Z,100385.63
2022-12-08T11:01:03.216Z,100389.19
2022-12-08T11:04:18.853Z,100391.53
2022-12-08T11:07:23.682Z,100386.31
2022-12-08T11:10:37.753Z,100383.34
2022-12-08T11:13:42.356Z,100374.28
2022-12-08T11:16:45.725Z,100387.38
2022-12-08T11:20:12.608Z,100385.09
2022-12-08T11:27:59.882Z,100375.78
2022-12-08T11:31:21.075Z,100380.03
2022-12-08T11:34:38.987Z,100371.34
2022-12-08T11:37:43.827Z,100366.53
2022-12-08T11:40:53.462Z,100356.09
2022-12-08T11:44:24.631Z,100356.59
2022-12-08T11:47:41.332Z,100340.31
2022-12-08T11:50:52.991Z,100336.25
2022-12-08T11:54:28.870Z,100337.75
2022-12-08T11:57:32.341Z,100329.19
2022-12-08T12:00:35.680Z,100322.44
2022-12-08T12:04:04.688Z,100319.84
2022-12-08T12:07:42.026Z,100311.72
2022-12-08T12:11:09.582Z,100298.47
2022-12-08T12:14:12.384Z,100299.88
2022-12-08T12:17:40.692Z,100297.25
2022-12-08T12:21:06.785Z,100290.22
2022-12-08T12:24:30.496Z,100288.09
2022-12-08T12:27:41.559Z,100278.47
2022-12-08T12:31:15.924Z,100281.44
2022-12-08T12:34:24.305Z,100276.84
2022-12-08T12:37:39.137Z,100276.09
2022-12-08T12:40:42.322Z,100272.19
2022-12-08T12:44:10.564Z,100277.66
2022-12-08T12:47:15.121Z,100279.41
2022-12-08T12:50:33.565Z,100282.09
2022-12-08T12:53:36.420Z,100270.59
2022-12-08T12:57:08.635Z,100270.41
2022-12-08T13:00:20.458Z,100267.88
2022-12-08T13:03:25.023Z,100266.34
2022-12-08T13:06:44.988Z,100265.50
2022-12-08T13:10:33.854Z,100261.06
2022-12-08T13:13:57.311Z,100252.09
2022-12-08T13:17:02.297Z,100248.47
2022-12-08T13:20:17.708Z,100256.09
2022-12-08T13:23:57.807Z,100252.19
2022-12-08T13:27:14.833Z,100245.69
2022-12-08T13:30:45.409Z,100249.13
2022-12-08T13:33:48.562Z,100239.84
2022-12-08T13:37:00.424Z,100247.31
2022-12-08T13:40:16.395Z,100232.81
2022-12-08T13:43:52.444Z,100229.09
2022-12-08T13:47:32.916Z,100240.00
2022-12-08T13:51:55.004Z,100239.56
2022-12-08T13:57:35.800Z,100240.00
2022-12-08T14:00:39.416Z,100249.88
2022-12-08T14:04:42.148Z,100252.50
2022-12-08T14:07:22.959Z,100241.75
2022-12-08T14:10:30.583Z,100249.81
2022-12-08T14:13:34.262Z,100239.28
2022-12-08T14:16:49.822Z,100239.03
2022-12-08T14:20:02.141Z,100232.97
2022-12-08T14:23:07.863Z,100227.59
2022-12-08T14:26:12.845Z,100233.41
2022-12-08T14:29:40.067Z,100226.25
2022-12-08T14:32:58.802Z,100228.44
2022-12-08T14:36:01.599Z,100226.34
2022-12-08T14:39:04.456Z,100227.91
2022-12-08T14:42:07.912Z,100227.00
2022-12-08T14:45:13.252Z,100240.88
2022-12-08T14:48:29.660Z,100245.84
2022-12-08T14:51:33.729Z,100245.38
2022-12-08T14:54:36.660Z,100251.31
2022-12-08T14:57:39.851Z,100241.78
2022-12-08T15:00:50.182Z,100252.28
2022-12-08T15:03:55.655Z,100254.25
2022-12-08T15:07:04.890Z,100263.09
2022-12-08T15:10:10.219Z,100279.84
2022-12-08T15:13:13.075Z,100285.28
2022-12-08T15:16:27.237Z,100260.72
2022-12-08T15:19:33.429Z,100261.91
2022-12-08T15:22:36.286Z,100255.38
2022-12-08T15:25:39.076Z,100268.50
2022-12-08T15:28:41.931Z,100269.41
2022-12-08T15:31:44.964Z,100286.97
2022-12-08T15:34:48.370Z,100281.94
2022-12-08T15:37:51.250Z,100284.66
2022-12-08T15:40:55.290Z,100287.91
2022-12-08T15:43:58.209Z,100302.81
2022-12-08T15:47:01.229Z,100302.44
2022-12-08T15:50:05.017Z,100293.44
2022-12-08T15:53:10.754Z,100282.84
2022-12-08T15:56:30.104Z,100270.78
2022-12-08T15:59:33.227Z,100269.03
2022-12-08T16:03:04.938Z,100283.16
2022-12-08T16:06:50.808Z,100277.13
2022-12-08T16:09:41.595Z,100283.47
2022-12-08T16:16:29.310Z,100280.44
2022-12-08T16:19:32.052Z,100283.09
2022-12-08T16:29:22.713Z,100295.53
2022-12-08T16:32:27.152Z,100289.16
2022-12-08T16:35:30.825Z,100289.53
2022-12-08T16:38:36.029Z,100280.06
2022-12-08T16:42:01.192Z,100279.00
2022-12-08T16:45:10.145Z,100283.78
2022-12-08T16:48:14.811Z,100284.84
2022-12-08T16:51:26.481Z,100284.25
2022-12-08T16:54:30.288Z,100277.06
2022-12-08T16:57:33.018Z,100278.72
2022-12-08T17:00:38.733Z,100272.34
2022-12-08T17:03:51.736Z,100278.78
2022-12-08T17:07:05.806Z,100269.56
2022-12-08T17:10:10.903Z,100283.56
2022-12-08T17:13:16.997Z,100284.78
2022-12-08T17:16:20.420Z,100293.34
2022-12-08T17:19:23.449Z,100289.56
2022-12-08T17:22:26.481Z,100294.94
2022-12-08T17:25:29.363Z,100294.88
2022-12-08T17:28:58.853Z,100303.63
2022-12-08T17:31:55.472Z,100310.63
2022-12-08T17:34:58.474Z,100312.03
2022-12-08T17:38:01.251Z,100306.34
2022-12-08T17:41:07.294Z,100299.84
2022-12-08T17:44:12.319Z,100302.84
2022-12-08T17:47:15.078Z,100309.50
2022-12-08T17:50:18.254Z,100304.34
2022-12-08T17:53:22.158Z,100303.06
2022-12-08T17:56:25.018Z,100305.91
2022-12-08T17:59:29.052Z,100307.50
2022-12-08T18:02:33.675Z,100300.19
2022-12-08T18:05:37.088Z,100307.25
2022-12-08T18:08:40.770Z,100303.63
2022-12-08T18:11:44.643Z,100305.31
2022-12-08T18:14:48.392Z,100291.44
2022-12-08T18:17:51.332Z,100286.47
2022-12-08T18:20:54.567Z,100287.66
2022-12-08T18:23:57.667Z,100285.09
2022-12-08T18:27:00.587Z,100277.75
2022-12-08T18:30:04.183Z,100282.75
2022-12-08T18:33:08.451Z,100290.56
2022-12-08T18:36:15.242Z,100303.88
2022-12-08T18:39:29.465Z,100286.56
2022-12-08T18:42:32.823Z,100285.03
2022-12-08T18:45:38.879Z,100281.47
2022-12-08T18:48:47.394Z,100267.16
2022-12-08T18:51:50.339Z,100269.34
2022-12-08T18:55:09.060Z,100267.59
2022-12-08T18:58:15.179Z,100271.34
2022-12-08T19:01:19.842Z,100272.13
2022-12-08T19:04:31.886Z,100280.59
2022-12-08T19:07:36.763Z,100281.03
2022-12-08T19:10:39.714Z,100282.94
2022-12-08T19:13:42.747Z,100294.63
2022-12-08T19:16:46.861Z,100284.28
2022-12-08T19:19:50.126Z,100284.75
2022-12-08T19:22:53.850Z,100281.41
2022-12-08T19:25:56.660Z,100284.13
2022-12-08T19:28:59.902Z,100283.28
2022-12-08T19:32:05.240Z,100300.53
2022-12-08T19:35:08.742Z,100310.41
2022-12-08T19:38:11.888Z,100302.97
2022-12-08T19:41:33.919Z,100306.97
2022-12-08T19:44:55.276Z,100302.44
2022-12-08T19:47:58.439Z,100307.78
2022-12-08T19:51:01.728Z,100314.75
2022-12-08T19:54:05.170Z,100318.84
2022-12-08T19:57:08.602Z,100308.78
2022-12-08T20:00:13.130Z,100316.03
2022-12-08T20:03:17.911Z,100308.69
2022-12-08T20:06:23.374Z,100315.75
2022-12-08T20:09:26.494Z,100304.63
2022-12-08T20:12:29.532Z,100311.16
2022-12-08T20:15:32.650Z,100304.16
2022-12-08T20:18:37.168Z,100305.06
2022-12-08T20:21:41.265Z,100299.81
2022-12-08T20:24:44.107Z,100301.09
2022-12-08T20:27:47.174Z,100299.53
2022-12-08T20:30:50.432Z,100308.94
2022-12-08T20:33:53.721Z,100316.50
2022-12-08T20:36:56.837Z,100312.75
2022-12-08T20:39:59.955Z,100311.84
2022-12-08T20:43:03.043Z,100310.56
2022-12-08T20:46:09.468Z,100318.09
2022-12-08T20:49:13.416Z,100320.28
2022-12-08T20:52:16.865Z,100327.16
2022-12-08T20:55:20.049Z,100329.63
2022-12-08T20:58:23.801Z,100332.97
2022-12-08T21:01:27.167Z,100338.66
2022-12-08T21:04:30.277Z,100335.72
2022-12-08T21:07:34.274Z,100344.56
2022-12-08T21:10:42.294Z,100354.25
2022-12-08T21:13:47.045Z,100349.09
2022-12-08T21:16:51.014Z,100357.50
2022-12-08T21:19:54.033Z,100365.03
2022-12-08T21:22:56.765Z,100370.78
2022-12-08T21:25:59.804Z,100375.22
2022-12-08T21:29:02.602Z,100372.81
2022-12-08T21:32:05.635Z,100361.41
2022-12-08T21:35:09.259Z,100363.09
2022-12-08T21:38:12.404Z,100351.63
2022-12-08T21:41:37.617Z,100361.03
2022-12-08T21:44:40.773Z,100365.94
2022-12-08T21:47:44.917Z,100369.22
2022-12-08T21:50:48.125Z,100385.44
2022-12-08T21:53:51.369Z,100391.69
2022-12-08T21:56:54.392Z,100374.94
2022-12-08T21:59:57.675Z,100382.00
2022-12-08T22:03:00.563Z,100377.31
2022-12-08T22:06:11.929Z,100381.16
2022-12-08T22:09:15.475Z,100364.72
2022-12-08T22:12:18.625Z,100380.13
2022-12-08T22:15:21.464Z,100388.16
2022-12-08T22:18:24.672Z,100369.28
2022-12-08T22:21:27.894Z,100387.16
2022-12-08T22:24:31.344Z,100380.09
2022-12-08T22:27:34.660Z,100384.53
2022-12-08T22:30:39.475Z,100393.38
2022-12-08T22:33:42.997Z,100392.41
2022-12-08T22:36:46.023Z,100382.59
2022-12-08T22:39:48.853Z,100392.59
2022-12-08T22:42:51.848Z,100372.44
2022-12-08T22:45:54.761Z,100375.91
2022-12-08T22:48:57.632Z,100375.66
2022-12-08T22:52:00.616Z,100369.22
2022-12-08T22:55:03.521Z,100356.50
2022-12-08T22:58:06.245Z,100330.03
2022-12-08T23:01:09.432Z,100337.56
2022-12-08T23:04:17.425Z,100359.06
2022-12-08T23:07:20.535Z,100358.03
2022-12-08T23:10:23.399Z,100356.47
2022-12-08T23:13:26.134Z,100347.75
2022-12-08T23:16:29.193Z,100335.59
2022-12-08T23:19:32.021Z,100340.22
2022-12-08T23:22:34.756Z,100341.66
2022-12-08T23:25:41.720Z,100350.88
2022-12-08T23:28:44.857Z,100347.44
2022-12-08T23:31:47.738Z,100331.50
2022-12-08T23:34:50.760Z,100331.19
2022-12-08T23:37:53.762Z,100323.25
2022-12-08T23:41:02.219Z,100345.41
2022-12-08T23:44:05.099Z,100343.13
2022-12-08T23:47:08.035Z,100342.31
2022-12-08T23:50:12.196Z,100340.13
2022-12-08T23:53:15.221Z,100342.69
2022-12-08T23:56:18.891Z,100345.00
2022-12-08T23:59:21.745Z,100328.66
